Aaron Joseph — WCV9877 — position and weather

sailwx.info

Track history (hours):
 
Tides and Currents Weather Stations Pressure Air Temp Water Temp Dewpoint Dewpoint Depression Visibility Wind Speed Wind Dir Waves Ship Positions

Aaron Joseph

Owner: AARON JOSEPH INC, GOLDEN MEADOW, LA. More information available from US FCC via Universal Licensing System and Coast Guard Vessel Documentation Center.

Last reported at 2015-Mar-31 02:26 UTC. Time now 2015-Mar-31 03:16 UTC.
Position N 29°36' W 090°40'.

; draft 2.5 m.

Type: Tug. MMSI: 367028680.

Date/timePositionNaut miles runAvg speedWind from/ knotsBaromVisibWave heightAir tempDewpointWater temp
2015-Mar-31 02:26N 29°36' W 090°40'0 0.0
2015-Mar-31 01:32N 29°36' W 090°40'4 4.1
2015-Mar-31 00:33N 29°35' W 090°36'1 0.5
2015-Mar-30 23:31N 29°35' W 090°36'0 0.0
2015-Mar-30 22:25N 29°35' W 090°36'0 0.0
2015-Mar-30 21:31N 29°35' W 090°36'0 0.1
2015-Mar-30 20:29N 29°35' W 090°36'0 0.0
2015-Mar-30 19:33N 29°35' W 090°36'0 0.0
2015-Mar-30 18:29N 29°35' W 090°36'0 0.0
2015-Mar-30 17:33N 29°35' W 090°36'0 0.1
2015-Mar-30 16:19N 29°35' W 090°36'0 0.2
2015-Mar-30 15:28N 29°35' W 090°36'0 0.1
2015-Mar-30 14:30N 29°35' W 090°36'0 0.0
2015-Mar-30 13:30N 29°35' W 090°36'0 0.0
2015-Mar-30 12:30N 29°35' W 090°36'0 0.0
2015-Mar-30 11:24N 29°35' W 090°36'0 0.0
2015-Mar-30 10:30N 29°35' W 090°36'0 0.0
2015-Mar-30 09:30N 29°35' W 090°36'0 0.0
2015-Mar-30 08:30N 29°35' W 090°36'0 0.0
2015-Mar-30 07:30N 29°35' W 090°36'0 0.0
2015-Mar-30 06:30N 29°35' W 090°36'0 0.0
2015-Mar-30 05:24N 29°35' W 090°36'0 0.0
2015-Mar-30 04:30N 29°35' W 090°36'0 0.0
2015-Mar-30 03:24N 29°35' W 090°36'0 0.0
2015-Mar-30 02:30N 29°35' W 090°36'0 0.0
2015-Mar-30 01:30N 29°35' W 090°36'0 0.0
2015-Mar-30 00:30N 29°35' W 090°36'0 0.0
2015-Mar-29 23:18N 29°35' W 090°36'0 0.0
2015-Mar-29 22:30N 29°35' W 090°36'0 0.0
2015-Mar-29 21:30N 29°35' W 090°36'0 0.0
2015-Mar-29 19:24N 29°35' W 090°36'0 0.0
2015-Mar-29 18:30N 29°35' W 090°36'0 0.0
2015-Mar-29 17:06N 29°35' W 090°36'0 0.0
2015-Mar-29 16:24N 29°35' W 090°36'0 0.0
2015-Mar-29 15:30N 29°35' W 090°36'0 0.0
2015-Mar-29 14:30N 29°35' W 090°36'0 0.0
2015-Mar-29 13:30N 29°35' W 090°36'0 0.0
2015-Mar-29 12:30N 29°35' W 090°36'0 0.0
2015-Mar-29 11:30N 29°35' W 090°36'0 0.0
2015-Mar-29 10:24N 29°35' W 090°36'0 0.0
2015-Mar-29 09:30N 29°35' W 090°36'0 0.0
2015-Mar-29 08:30N 29°35' W 090°36'0 0.0
2015-Mar-29 07:30N 29°35' W 090°36'0 0.0
2015-Mar-29 06:30N 29°35' W 090°36'0 0.0
2015-Mar-29 05:30N 29°35' W 090°36'0 0.0
2015-Mar-29 04:24N 29°35' W 090°36'3 3.0
2015-Mar-29 03:33N 29°34' W 090°33'2 0.1
2015-Mar-27 18:33N 29°35' W 090°36'6 6.2
2015-Mar-27 17:33N 29°36' W 090°43'3 2.8
2015-Mar-27 16:32N 29°33' W 090°42'0 0.0
2015-Mar-27 15:31N 29°33' W 090°42'4 4.0
2015-Mar-27 14:34N 29°37' W 090°42'6 5.7
2015-Mar-27 13:31N 29°35' W 090°36'0 0.2
2015-Mar-27 12:18N 29°35' W 090°36'0 0.0
2015-Mar-27 10:12N 29°35' W 090°36'0 0.0
2015-Mar-27 09:24N 29°35' W 090°36'0 0.0
2015-Mar-27 08:30N 29°35' W 090°36'0 0.0
2015-Mar-27 07:24N 29°35' W 090°36'0 0.0
2015-Mar-27 03:30N 29°35' W 090°36'0 0.0
2015-Mar-26 23:18N 29°35' W 090°36'0 0.0
2015-Mar-26 22:06N 29°35' W 090°36'0 0.0
2015-Mar-26 21:30N 29°35' W 090°36'0 0.0
2015-Mar-26 20:24N 29°35' W 090°36'0 0.0
2015-Mar-26 19:24N 29°35' W 090°36'0 0.0
2015-Mar-26 18:24N 29°35' W 090°36'0 0.0
2015-Mar-26 17:30N 29°35' W 090°36'0 0.0
2015-Mar-26 16:30N 29°35' W 090°36'0 0.0
2015-Mar-26 15:30N 29°35' W 090°36'0 0.0
2015-Mar-26 14:30N 29°35' W 090°36'0 0.0
2015-Mar-26 13:30N 29°35' W 090°36'0 0.0
2015-Mar-26 12:24N 29°35' W 090°36'0 0.0
2015-Mar-26 10:30N 29°35' W 090°36'0 0.0
2015-Mar-26 06:18N 29°35' W 090°36'0 0.0
2015-Mar-26 05:30N 29°35' W 090°36'0 0.0
2015-Mar-26 04:24N 29°35' W 090°36'0 0.0
2015-Mar-26 03:30N 29°35' W 090°36'0 0.0
2015-Mar-26 01:12N 29°35' W 090°36'0 0.0
2015-Mar-26 00:18N 29°35' W 090°36'0 0.0
2015-Mar-25 16:29N 29°35' W 090°36'0 0.0
2015-Mar-25 13:17N 29°35' W 090°36'0 0.0
2015-Mar-25 12:23N 29°35' W 090°36'0 0.0
2015-Mar-25 10:23N 29°35' W 090°36'0 0.0
2015-Mar-25 09:29N 29°35' W 090°36'0 0.0
2015-Mar-25 07:05N 29°35' W 090°36'0 0.0
2015-Mar-25 06:23N 29°35' W 090°36'0 0.0
2015-Mar-25 03:23N 29°35' W 090°36'0 0.0
2015-Mar-25 01:29N 29°35' W 090°36'0 0.0
2015-Mar-24 17:29N 29°35' W 090°36'0 0.0
2015-Mar-24 16:29N 29°35' W 090°36'0 0.0
2015-Mar-24 15:29N 29°35' W 090°36'0 0.0
2015-Mar-24 14:30N 29°35' W 090°36'2 1.8
2015-Mar-24 13:33N 29°35' W 090°38'2 2.1
2015-Mar-24 12:28N 29°36' W 090°40'0 0.0
2015-Mar-24 11:34N 29°36' W 090°40'0 0.0
2015-Mar-24 10:22N 29°36' W 090°40'0 0.0
2015-Mar-24 09:33N 29°36' W 090°40'6 6.3
2015-Mar-24 08:33N 29°34' W 090°33'7 7.2
2015-Mar-24 07:32N 29°33' W 090°25'4 0.1
2015-Mar-23 00:32N 29°34' W 090°30'7 6.8
2015-Mar-22 23:33N 29°35' W 090°37'5 4.9
2015-Mar-22 22:33N 29°35' W 090°43'6 5.8
2015-Mar-22 21:33N 29°32' W 090°49'9 7.4
2015-Mar-22 20:23N 29°35' W 090°58'  
Track history (hours):
 
Tides and Currents Weather Stations Pressure Air Temp Water Temp Dewpoint Dewpoint Depression Visibility Wind Speed Wind Dir Waves Ship Positions

Aaron Joseph

Owner: AARON JOSEPH INC, GOLDEN MEADOW, LA. More information available from US FCC via Universal Licensing System and Coast Guard Vessel Documentation Center.

Last reported at 2015-Mar-31 02:26 UTC. Time now 2015-Mar-31 03:16 UTC.
Position N 29°36' W 090°40'.

; draft 2.5 m.

Type: Tug. MMSI: 367028680.

Date/timePositionNaut miles runAvg speedWind from/ knotsBaromVisibWave heightAir tempDewpointWater temp
2015-Mar-31 02:26N 29°36' W 090°40'0 0.0
2015-Mar-31 01:32N 29°36' W 090°40'4 4.1
2015-Mar-31 00:33N 29°35' W 090°36'1 0.5
2015-Mar-30 23:31N 29°35' W 090°36'0 0.0
2015-Mar-30 22:25N 29°35' W 090°36'0 0.0
2015-Mar-30 21:31N 29°35' W 090°36'0 0.1
2015-Mar-30 20:29N 29°35' W 090°36'0 0.0
2015-Mar-30 19:33N 29°35' W 090°36'0 0.0
2015-Mar-30 18:29N 29°35' W 090°36'0 0.0
2015-Mar-30 17:33N 29°35' W 090°36'0 0.1
2015-Mar-30 16:19N 29°35' W 090°36'0 0.2
2015-Mar-30 15:28N 29°35' W 090°36'0 0.1
2015-Mar-30 14:30N 29°35' W 090°36'0 0.0
2015-Mar-30 13:30N 29°35' W 090°36'0 0.0
2015-Mar-30 12:30N 29°35' W 090°36'0 0.0
2015-Mar-30 11:24N 29°35' W 090°36'0 0.0
2015-Mar-30 10:30N 29°35' W 090°36'0 0.0
2015-Mar-30 09:30N 29°35' W 090°36'0 0.0
2015-Mar-30 08:30N 29°35' W 090°36'0 0.0
2015-Mar-30 07:30N 29°35' W 090°36'0 0.0
2015-Mar-30 06:30N 29°35' W 090°36'0 0.0
2015-Mar-30 05:24N 29°35' W 090°36'0 0.0
2015-Mar-30 04:30N 29°35' W 090°36'0 0.0
2015-Mar-30 03:24N 29°35' W 090°36'0 0.0
2015-Mar-30 02:30N 29°35' W 090°36'0 0.0
2015-Mar-30 01:30N 29°35' W 090°36'0 0.0
2015-Mar-30 00:30N 29°35' W 090°36'0 0.0
2015-Mar-29 23:18N 29°35' W 090°36'0 0.0
2015-Mar-29 22:30N 29°35' W 090°36'0 0.0
2015-Mar-29 21:30N 29°35' W 090°36'0 0.0
2015-Mar-29 19:24N 29°35' W 090°36'0 0.0
2015-Mar-29 18:30N 29°35' W 090°36'0 0.0
2015-Mar-29 17:06N 29°35' W 090°36'0 0.0
2015-Mar-29 16:24N 29°35' W 090°36'0 0.0
2015-Mar-29 15:30N 29°35' W 090°36'0 0.0
2015-Mar-29 14:30N 29°35' W 090°36'0 0.0
2015-Mar-29 13:30N 29°35' W 090°36'0 0.0
2015-Mar-29 12:30N 29°35' W 090°36'0 0.0
2015-Mar-29 11:30N 29°35' W 090°36'0 0.0
2015-Mar-29 10:24N 29°35' W 090°36'0 0.0
2015-Mar-29 09:30N 29°35' W 090°36'0 0.0
2015-Mar-29 08:30N 29°35' W 090°36'0 0.0
2015-Mar-29 07:30N 29°35' W 090°36'0 0.0
2015-Mar-29 06:30N 29°35' W 090°36'0 0.0
2015-Mar-29 05:30N 29°35' W 090°36'0 0.0
2015-Mar-29 04:24N 29°35' W 090°36'3 3.0
2015-Mar-29 03:33N 29°34' W 090°33'2 0.1
2015-Mar-27 18:33N 29°35' W 090°36'6 6.2
2015-Mar-27 17:33N 29°36' W 090°43'3 2.8
2015-Mar-27 16:32N 29°33' W 090°42'0 0.0
2015-Mar-27 15:31N 29°33' W 090°42'4 4.0
2015-Mar-27 14:34N 29°37' W 090°42'6 5.7
2015-Mar-27 13:31N 29°35' W 090°36'0 0.2
2015-Mar-27 12:18N 29°35' W 090°36'0 0.0
2015-Mar-27 10:12N 29°35' W 090°36'0 0.0
2015-Mar-27 09:24N 29°35' W 090°36'0 0.0
2015-Mar-27 08:30N 29°35' W 090°36'0 0.0
2015-Mar-27 07:24N 29°35' W 090°36'0 0.0
2015-Mar-27 03:30N 29°35' W 090°36'0 0.0
2015-Mar-26 23:18N 29°35' W 090°36'0 0.0
2015-Mar-26 22:06N 29°35' W 090°36'0 0.0
2015-Mar-26 21:30N 29°35' W 090°36'0 0.0
2015-Mar-26 20:24N 29°35' W 090°36'0 0.0
2015-Mar-26 19:24N 29°35' W 090°36'0 0.0
2015-Mar-26 18:24N 29°35' W 090°36'0 0.0
2015-Mar-26 17:30N 29°35' W 090°36'0 0.0
2015-Mar-26 16:30N 29°35' W 090°36'0 0.0
2015-Mar-26 15:30N 29°35' W 090°36'0 0.0
2015-Mar-26 14:30N 29°35' W 090°36'0 0.0
2015-Mar-26 13:30N 29°35' W 090°36'0 0.0
2015-Mar-26 12:24N 29°35' W 090°36'0 0.0
2015-Mar-26 10:30N 29°35' W 090°36'0 0.0
2015-Mar-26 06:18N 29°35' W 090°36'0 0.0
2015-Mar-26 05:30N 29°35' W 090°36'0 0.0
2015-Mar-26 04:24N 29°35' W 090°36'0 0.0
2015-Mar-26 03:30N 29°35' W 090°36'0 0.0
2015-Mar-26 01:12N 29°35' W 090°36'0 0.0
2015-Mar-26 00:18N 29°35' W 090°36'0 0.0
2015-Mar-25 16:29N 29°35' W 090°36'0 0.0
2015-Mar-25 13:17N 29°35' W 090°36'0 0.0
2015-Mar-25 12:23N 29°35' W 090°36'0 0.0
2015-Mar-25 10:23N 29°35' W 090°36'0 0.0
2015-Mar-25 09:29N 29°35' W 090°36'0 0.0
2015-Mar-25 07:05N 29°35' W 090°36'0 0.0
2015-Mar-25 06:23N 29°35' W 090°36'0 0.0
2015-Mar-25 03:23N 29°35' W 090°36'0 0.0
2015-Mar-25 01:29N 29°35' W 090°36'0 0.0
2015-Mar-24 17:29N 29°35' W 090°36'0 0.0
2015-Mar-24 16:29N 29°35' W 090°36'0 0.0
2015-Mar-24 15:29N 29°35' W 090°36'0 0.0
2015-Mar-24 14:30N 29°35' W 090°36'2 1.8
2015-Mar-24 13:33N 29°35' W 090°38'2 2.1
2015-Mar-24 12:28N 29°36' W 090°40'0 0.0
2015-Mar-24 11:34N 29°36' W 090°40'0 0.0
2015-Mar-24 10:22N 29°36' W 090°40'0 0.0
2015-Mar-24 09:33N 29°36' W 090°40'6 6.3
2015-Mar-24 08:33N 29°34' W 090°33'7 7.2
2015-Mar-24 07:32N 29°33' W 090°25'4 0.1
2015-Mar-23 00:32N 29°34' W 090°30'7 6.8
2015-Mar-22 23:33N 29°35' W 090°37'5 4.9
2015-Mar-22 22:33N 29°35' W 090°43'6 5.8
2015-Mar-22 21:33N 29°32' W 090°49'9 7.4
2015-Mar-22 20:23N 29°35' W 090°58'  

Dump ship's entire track history